sensor_id;sensor_type;location;lat;lon;timestamp;pressure;altitude;pressure_sealevel;temperature;humidity
55466;BME280;41329;41.594;23.810;2023-11-18T00:01:48;94293.34;;;11.28;76.04
55466;BME280;41329;41.594;23.810;2023-11-18T00:04:14;94294.50;;;11.37;76.02
55466;BME280;41329;41.594;23.810;2023-11-18T00:06:43;94293.75;;;11.23;76.14
55466;BME280;41329;41.594;23.810;2023-11-18T00:09:12;94302.91;;;10.99;77.62
55466;BME280;41329;41.594;23.810;2023-11-18T00:11:39;94285.09;;;11.07;77.48
55466;BME280;41329;41.594;23.810;2023-11-18T00:14:04;94269.28;;;11.04;77.47
55466;BME280;41329;41.594;23.810;2023-11-18T00:16:30;94282.31;;;11.14;77.56
55466;BME280;41329;41.594;23.810;2023-11-18T00:18:55;94281.13;;;11.15;77.56
55466;BME280;41329;41.594;23.810;2023-11-18T00:21:21;94286.66;;;11.22;77.60
55466;BME280;41329;41.594;23.810;2023-11-18T00:23:46;94279.91;;;11.26;77.29
55466;BME280;41329;41.594;23.810;2023-11-18T00:26:13;94220.31;;;10.87;77.25
55466;BME280;41329;41.594;23.810;2023-11-18T00:28:39;94277.16;;;11.23;77.11
55466;BME280;41329;41.594;23.810;2023-11-18T00:31:05;94269.25;;;11.18;77.08
55466;BME280;41329;41.594;23.810;2023-11-18T00:33:31;94273.19;;;11.17;77.42
55466;BME280;41329;41.594;23.810;2023-11-18T00:35:56;94256.66;;;10.96;77.64
55466;BME280;41329;41.594;23.810;2023-11-18T00:38:22;94271.28;;;11.03;77.87
55466;BME280;41329;41.594;23.810;2023-11-18T00:40:47;94246.00;;;10.91;77.96
55466;BME280;41329;41.594;23.810;2023-11-18T00:43:12;94272.03;;;11.11;77.70
55466;BME280;41329;41.594;23.810;2023-11-18T00:45:38;94255.06;;;11.09;77.76
55466;BME280;41329;41.594;23.810;2023-11-18T00:48:04;94250.25;;;11.20;77.54
55466;BME280;41329;41.594;23.810;2023-11-18T00:50:30;94232.50;;;11.10;77.38
55466;BME280;41329;41.594;23.810;2023-11-18T00:52:56;94243.53;;;11.17;77.44
55466;BME280;41329;41.594;23.810;2023-11-18T00:55:22;94251.06;;;11.20;77.34
55466;BME280;41329;41.594;23.810;2023-11-18T00:57:47;94249.50;;;11.19;77.06
55466;BME280;41329;41.594;23.810;2023-11-18T01:00:14;94236.81;;;11.18;77.17
55466;BME280;41329;41.594;23.810;2023-11-18T01:02:42;94244.75;;;11.13;77.35
55466;BME280;41329;41.594;23.810;2023-11-18T01:05:07;94238.84;;;11.07;77.25
55466;BME280;41329;41.594;23.810;2023-11-18T01:07:37;94264.97;;;10.99;77.73
55466;BME280;41329;41.594;23.810;2023-11-18T01:10:03;94284.72;;;11.05;77.66
55466;BME280;41329;41.594;23.810;2023-11-18T01:12:29;94283.97;;;10.90;78.06
55466;BME280;41329;41.594;23.810;2023-11-18T01:14:54;94286.34;;;10.85;78.61
55466;BME280;41329;41.594;23.810;2023-11-18T01:17:20;94265.78;;;10.86;78.72
55466;BME280;41329;41.594;23.810;2023-11-18T01:19:47;94251.16;;;10.92;78.40
55466;BME280;41329;41.594;23.810;2023-11-18T01:22:13;94248.75;;;11.01;78.57
55466;BME280;41329;41.594;23.810;2023-11-18T01:24:39;94243.59;;;11.07;78.48
55466;BME280;41329;41.594;23.810;2023-11-18T01:27:04;94248.31;;;11.10;78.47
55466;BME280;41329;41.594;23.810;2023-11-18T01:29:29;94255.84;;;11.02;78.66
55466;BME280;41329;41.594;23.810;2023-11-18T01:31:56;94260.59;;;11.05;78.42
55466;BME280;41329;41.594;23.810;2023-11-18T01:34:22;94254.66;;;11.07;78.17
55466;BME280;41329;41.594;23.810;2023-11-18T01:36:48;94238.47;;;11.02;78.06
55466;BME280;41329;41.594;23.810;2023-11-18T01:39:17;94266.06;;;11.23;78.14
55466;BME280;41329;41.594;23.810;2023-11-18T01:41:46;94248.72;;;11.15;77.98
55466;BME280;41329;41.594;23.810;2023-11-18T01:44:11;94260.13;;;11.28;77.62
55466;BME280;41329;41.594;23.810;2023-11-18T01:46:40;94247.06;;;11.28;77.59
55466;BME280;41329;41.594;23.810;2023-11-18T01:49:05;94245.47;;;11.31;77.77
55466;BME280;41329;41.594;23.810;2023-11-18T01:51:33;94234.38;;;11.34;77.48
55466;BME280;41329;41.594;23.810;2023-11-18T01:54:01;94241.09;;;11.37;77.28
55466;BME280;41329;41.594;23.810;2023-11-18T01:56:28;94222.16;;;11.25;76.97
55466;BME280;41329;41.594;23.810;2023-11-18T01:58:53;94222.13;;;11.32;76.98
55466;BME280;41329;41.594;23.810;2023-11-18T02:01:19;94232.38;;;11.38;76.75
55466;BME280;41329;41.594;23.810;2023-11-18T02:03:45;94224.91;;;11.32;76.85
55466;BME280;41329;41.594;23.810;2023-11-18T02:06:12;94227.25;;;11.37;76.78
55466;BME280;41329;41.594;23.810;2023-11-18T02:08:38;94195.66;;;11.24;76.57
55466;BME280;41329;41.594;23.810;2023-11-18T02:11:20;94207.91;;;11.30;76.87
55466;BME280;41329;41.594;23.810;2023-11-18T02:13:53;94216.16;;;11.37;76.73
55466;BME280;41329;41.594;23.810;2023-11-18T02:16:20;94201.53;;;11.33;76.97
55466;BME280;41329;41.594;23.810;2023-11-18T02:18:46;94191.69;;;11.25;77.06
55466;BME280;41329;41.594;23.810;2023-11-18T02:21:13;94201.53;;;11.36;76.93
55466;BME280;41329;41.594;23.810;2023-11-18T02:23:40;94200.34;;;11.37;76.76
55466;BME280;41329;41.594;23.810;2023-11-18T02:26:07;94175.47;;;11.27;76.67
55466;BME280;41329;41.594;23.810;2023-11-18T02:28:33;94193.25;;;11.33;76.23
55466;BME280;41329;41.594;23.810;2023-11-18T02:31:15;94185.00;;;11.26;75.37
55466;BME280;41329;41.594;23.810;2023-11-18T02:33:53;94197.59;;;11.30;75.02
55466;BME280;41329;41.594;23.810;2023-11-18T02:36:27;94190.09;;;11.27;74.99
55466;BME280;41329;41.594;23.810;2023-11-18T02:39:01;94190.50;;;11.29;74.45
55466;BME280;41329;41.594;23.810;2023-11-18T02:41:34;94187.41;;;11.13;74.31
55466;BME280;41329;41.594;23.810;2023-11-18T02:43:59;94204.81;;;11.14;74.25
55466;BME280;41329;41.594;23.810;2023-11-18T02:46:26;94215.88;;;11.10;73.93
55466;BME280;41329;41.594;23.810;2023-11-18T02:48:52;94229.38;;;11.05;73.78
55466;BME280;41329;41.594;23.810;2023-11-18T02:51:19;94230.59;;;10.97;73.21
55466;BME280;41329;41.594;23.810;2023-11-18T02:53:44;94202.56;;;10.74;72.42
55466;BME280;41329;41.594;23.810;2023-11-18T02:56:10;94216.81;;;10.76;71.73
55466;BME280;41329;41.594;23.810;2023-11-18T02:58:36;94191.97;;;10.55;71.45
55466;BME280;41329;41.594;23.810;2023-11-18T03:01:03;94216.44;;;10.60;71.29
55466;BME280;41329;41.594;23.810;2023-11-18T03:03:29;94216.09;;;10.51;71.34
55466;BME280;41329;41.594;23.810;2023-11-18T03:05:55;94197.50;;;10.41;71.24
55466;BME280;41329;41.594;23.810;2023-11-18T03:08:20;94207.81;;;10.40;71.17
55466;BME280;41329;41.594;23.810;2023-11-18T03:10:46;94197.16;;;10.28;71.05
55466;BME280;41329;41.594;23.810;2023-11-18T03:13:12;94179.81;;;10.21;71.10
55466;BME280;41329;41.594;23.810;2023-11-18T03:15:37;94203.84;;;10.34;71.31
55466;BME280;41329;41.594;23.810;2023-11-18T03:18:03;94183.72;;;10.20;71.64
55466;BME280;41329;41.594;23.810;2023-11-18T03:20:32;94198.34;;;10.31;71.38
55466;BME280;41329;41.594;23.810;2023-11-18T03:22:59;94192.41;;;10.25;70.95
55466;BME280;41329;41.594;23.810;2023-11-18T03:25:26;94198.75;;;10.26;70.86
55466;BME280;41329;41.594;23.810;2023-11-18T03:27:52;94175.84;;;10.15;71.10
55466;BME280;41329;41.594;23.810;2023-11-18T03:30:19;94192.81;;;10.20;70.74
55466;BME280;41329;41.594;23.810;2023-11-18T03:32:45;94200.34;;;10.13;70.56
55466;BME280;41329;41.594;23.810;2023-11-18T03:35:10;94207.84;;;10.09;70.85
55466;BME280;41329;41.594;23.810;2023-11-18T03:37:37;94203.50;;;10.11;71.35
55466;BME280;41329;41.594;23.810;2023-11-18T03:40:06;94208.22;;;10.18;71.67
55466;BME280;41329;41.594;23.810;2023-11-18T03:42:31;94213.72;;;10.04;70.89
55466;BME280;41329;41.594;23.810;2023-11-18T03:44:57;94212.16;;;9.99;70.92
55466;BME280;41329;41.594;23.810;2023-11-18T03:47:22;94218.06;;;9.94;69.87
55466;BME280;41329;41.594;23.810;2023-11-18T03:49:50;94217.66;;;9.92;69.60
55466;BME280;41329;41.594;23.810;2023-11-18T03:52:15;94213.31;;;9.91;69.95
55466;BME280;41329;41.594;23.810;2023-11-18T03:54:41;94166.38;;;9.67;69.57
55466;BME280;41329;41.594;23.810;2023-11-18T03:57:07;94162.41;;;9.71;70.08
55466;BME280;41329;41.594;23.810;2023-11-18T03:59:32;94210.56;;;9.95;70.17
55466;BME280;41329;41.594;23.810;2023-11-18T04:01:58;94213.34;;;9.98;70.64
55466;BME280;41329;41.594;23.810;2023-11-18T04:04:23;94208.97;;;9.97;71.06
55466;BME280;41329;41.594;23.810;2023-11-18T04:06:48;94210.94;;;10.00;70.71
55466;BME280;41329;41.594;23.810;2023-11-18T04:09:14;94220.03;;;9.90;69.92
55466;BME280;41329;41.594;23.810;2023-11-18T04:11:39;94221.19;;;9.75;68.62
55466;BME280;41329;41.594;23.810;2023-11-18T04:14:06;94227.50;;;9.72;68.79
55466;BME280;41329;41.594;23.810;2023-11-18T04:16:33;94226.31;;;9.70;69.36
55466;BME280;41329;41.594;23.810;2023-11-18T04:18:59;94183.28;;;9.51;68.98
55466;BME280;41329;41.594;23.810;2023-11-18T04:21:24;94163.94;;;9.41;69.38
55466;BME280;41329;41.594;23.810;2023-11-18T04:23:49;94217.63;;;9.71;69.46
55466;BME280;41329;41.594;23.810;2023-11-18T04:26:15;94220.41;;;9.78;69.44
55466;BME280;41329;41.594;23.810;2023-11-18T04:28:40;94208.56;;;9.50;68.63
55466;BME280;41329;41.594;23.810;2023-11-18T04:31:06;94220.78;;;9.59;67.60
55466;BME280;41329;41.594;23.810;2023-11-18T04:33:32;94226.28;;;9.45;67.55
55466;BME280;41329;41.594;23.810;2023-11-18T04:35:58;94204.97;;;9.39;67.73
55466;BME280;41329;41.594;23.810;2023-11-18T04:38:24;94213.63;;;9.30;67.86
55466;BME280;41329;41.594;23.810;2023-11-18T04:40:50;94202.56;;;9.23;67.42
55466;BME280;41329;41.594;23.810;2023-11-18T04:43:16;94223.84;;;9.16;66.76
55466;BME280;41329;41.594;23.810;2023-11-18T04:45:44;94211.97;;;9.01;67.97
55466;BME280;41329;41.594;23.810;2023-11-18T04:48:10;94221.41;;;8.97;67.44
55466;BME280;41329;41.594;23.810;2023-11-18T04:50:35;94220.16;;;8.87;67.86
55466;BME280;41329;41.594;23.810;2023-11-18T04:53:00;94217.41;;;8.80;68.81
55466;BME280;41329;41.594;23.810;2023-11-18T04:55:27;94210.31;;;8.86;69.19
55466;BME280;41329;41.594;23.810;2023-11-18T04:57:53;94233.66;;;9.06;68.97
55466;BME280;41329;41.594;23.810;2023-11-18T05:00:18;94235.63;;;9.06;68.27
55466;BME280;41329;41.594;23.810;2023-11-18T05:02:45;94229.72;;;9.11;68.59
55466;BME280;41329;41.594;23.810;2023-11-18T05:05:15;94219.81;;;8.99;68.04
55466;BME280;41329;41.594;23.810;2023-11-18T05:07:41;94202.38;;;8.74;67.04
55466;BME280;41329;41.594;23.810;2023-11-18T05:10:08;94232.34;;;8.79;66.80
55466;BME280;41329;41.594;23.810;2023-11-18T05:12:35;94242.97;;;8.74;66.57
55466;BME280;41329;41.594;23.810;2023-11-18T05:15:01;94240.13;;;8.60;65.58
55466;BME280;41329;41.594;23.810;2023-11-18T05:17:29;94234.59;;;8.60;65.83
55466;BME280;41329;41.594;23.810;2023-11-18T05:19:55;94219.19;;;8.45;65.73
55466;BME280;41329;41.594;23.810;2023-11-18T05:22:21;94248.00;;;8.58;65.73
55466;BME280;41329;41.594;23.810;2023-11-18T05:24:47;94242.44;;;8.51;65.92
55466;BME280;41329;41.594;23.810;2023-11-18T05:27:14;94241.94;;;8.35;65.19
55466;BME280;41329;41.594;23.810;2023-11-18T05:29:39;94254.47;;;8.25;65.37
55466;BME280;41329;41.594;23.810;2023-11-18T05:32:07;94265.09;;;8.27;64.97
55466;BME280;41329;41.594;23.810;2023-11-18T05:34:33;94267.84;;;8.27;64.88
55466;BME280;41329;41.594;23.810;2023-11-18T05:37:00;94278.88;;;8.27;65.16
55466;BME280;41329;41.594;23.810;2023-11-18T05:39:26;94277.72;;;8.28;64.87
55466;BME280;41329;41.594;23.810;2023-11-18T05:41:53;94281.63;;;8.23;64.88
55466;BME280;41329;41.594;23.810;2023-11-18T05:44:21;94253.94;;;8.09;64.36
55466;BME280;41329;41.594;23.810;2023-11-18T05:46:58;94244.88;;;8.12;64.18
55466;BME280;41329;41.594;23.810;2023-11-18T05:49:24;94251.25;;;8.20;63.46
55466;BME280;41329;41.594;23.810;2023-11-18T05:51:49;94273.44;;;8.37;63.48
55466;BME280;41329;41.594;23.810;2023-11-18T05:54:17;94275.31;;;8.23;62.68
55466;BME280;41329;41.594;23.810;2023-11-18T05:56:42;94258.25;;;8.10;62.47
55466;BME280;41329;41.594;23.810;2023-11-18T05:59:08;94262.22;;;8.13;62.78
55466;BME280;41329;41.594;23.810;2023-11-18T06:01:34;94279.06;;;8.04;63.04
55466;BME280;41329;41.594;23.810;2023-11-18T06:04:00;94275.16;;;8.09;63.40
55466;BME280;41329;41.594;23.810;2023-11-18T06:06:26;94257.72;;;7.94;63.20
55466;BME280;41329;41.594;23.810;2023-11-18T06:08:52;94287.06;;;8.20;62.86
55466;BME280;41329;41.594;23.810;2023-11-18T06:11:19;94286.22;;;8.12;62.44
55466;BME280;41329;41.594;23.810;2023-11-18T06:16:16;94258.81;;;7.83;62.10
55466;BME280;41329;41.594;23.810;2023-11-18T06:18:43;94280.56;;;7.95;62.15
55466;BME280;41329;41.594;23.810;2023-11-18T06:21:22;94296.81;;;8.07;61.68
55466;BME280;41329;41.594;23.810;2023-11-18T06:23:53;94299.22;;;8.12;61.51
55466;BME280;41329;41.594;23.810;2023-11-18T06:26:20;94298.41;;;8.11;61.15
55466;BME280;41329;41.594;23.810;2023-11-18T06:28:47;94292.16;;;8.18;61.20
55466;BME280;41329;41.594;23.810;2023-11-18T06:31:12;94285.09;;;8.20;61.26
55466;BME280;41329;41.594;23.810;2023-11-18T06:33:43;94290.59;;;8.20;61.22
55466;BME280;41329;41.594;23.810;2023-11-18T06:38:40;94276.44;;;8.18;60.26
55466;BME280;41329;41.594;23.810;2023-11-18T06:41:06;94302.91;;;8.30;59.79
55466;BME280;41329;41.594;23.810;2023-11-18T06:43:36;94304.94;;;8.36;59.26
55466;BME280;41329;41.594;23.810;2023-11-18T06:46:21;94291.09;;;8.26;58.54
55466;BME280;41329;41.594;23.810;2023-11-18T06:48:51;94305.31;;;8.35;58.83
55466;BME280;41329;41.594;23.810;2023-11-18T06:51:23;94305.31;;;8.31;59.05
55466;BME280;41329;41.594;23.810;2023-11-18T06:53:50;94297.28;;;8.19;58.57
55466;BME280;41329;41.594;23.810;2023-11-18T06:56:16;94307.63;;;8.29;58.27
55466;BME280;41329;41.594;23.810;2023-11-18T06:58:42;94298.38;;;8.08;57.56
55466;BME280;41329;41.594;23.810;2023-11-18T07:01:08;94303.53;;;8.13;58.34
55466;BME280;41329;41.594;23.810;2023-11-18T07:03:35;94301.53;;;8.10;58.32
55466;BME280;41329;41.594;23.810;2023-11-18T07:06:02;94301.06;;;8.01;58.29
55466;BME280;41329;41.594;23.810;2023-11-18T07:08:31;94280.94;;;7.93;58.11
55466;BME280;41329;41.594;23.810;2023-11-18T07:10:56;94294.81;;;8.04;58.53
55466;BME280;41329;41.594;23.810;2023-11-18T07:13:22;94274.06;;;8.17;58.04
55466;BME280;41329;41.594;23.810;2023-11-18T07:15:49;94275.16;;;8.09;58.70
55466;BME280;41329;41.594;23.810;2023-11-18T07:18:15;94274.06;;;8.17;58.26
55466;BME280;41329;41.594;23.810;2023-11-18T07:20:41;94283.19;;;8.21;58.11
55466;BME280;41329;41.594;23.810;2023-11-18T07:23:07;94281.25;;;8.28;57.77
55466;BME280;41329;41.594;23.810;2023-11-18T07:25:34;94292.00;;;8.44;57.56
55466;BME280;41329;41.594;23.810;2023-11-18T07:27:59;94283.03;;;8.54;57.53
55466;BME280;41329;41.594;23.810;2023-11-18T07:30:25;94288.53;;;8.54;56.55
55466;BME280;41329;41.594;23.810;2023-11-18T07:32:51;94296.81;;;8.54;56.23
55466;BME280;41329;41.594;23.810;2023-11-18T07:35:16;94298.25;;;8.37;56.40
55466;BME280;41329;41.594;23.810;2023-11-18T07:37:43;94288.41;;;8.36;56.24
55466;BME280;41329;41.594;23.810;2023-11-18T07:40:09;94289.66;;;8.46;55.51
55466;BME280;41329;41.594;23.810;2023-11-18T07:42:37;94277.84;;;8.45;54.63
55466;BME280;41329;41.594;23.810;2023-11-18T07:45:06;94297.94;;;8.46;54.77
55466;BME280;41329;41.594;23.810;2023-11-18T07:47:43;94300.38;;;8.58;56.71
55466;BME280;41329;41.594;23.810;2023-11-18T07:50:09;94302.03;;;8.69;57.21
55466;BME280;41329;41.594;23.810;2023-11-18T07:52:38;94308.84;;;8.93;56.65
55466;BME280;41329;41.594;23.810;2023-11-18T07:55:03;94299.50;;;9.11;56.16
55466;BME280;41329;41.594;23.810;2023-11-18T07:57:29;94292.47;;;9.21;55.04
55466;BME280;41329;41.594;23.810;2023-11-18T07:59:54;94286.97;;;9.38;54.28
55466;BME280;41329;41.594;23.810;2023-11-18T08:02:20;94285.41;;;9.41;54.88
55466;BME280;41329;41.594;23.810;2023-11-18T08:04:45;94259.75;;;9.26;54.12
55466;BME280;41329;41.594;23.810;2023-11-18T08:07:11;94287.00;;;9.42;52.93
55466;BME280;41329;41.594;23.810;2023-11-18T08:09:36;94267.66;;;9.35;54.67
55466;BME280;41329;41.594;23.810;2023-11-18T08:12:05;94273.66;;;9.61;54.27
55466;BME280;41329;41.594;23.810;2023-11-18T08:14:34;94287.91;;;9.88;51.65
55466;BME280;41329;41.594;23.810;2023-11-18T08:17:00;94297.41;;;10.04;52.71
55466;BME280;41329;41.594;23.810;2023-11-18T08:19:25;94295.47;;;10.19;52.29
55466;BME280;41329;41.594;23.810;2023-11-18T08:21:51;94295.06;;;10.24;52.21
55466;BME280;41329;41.594;23.810;2023-11-18T08:24:17;94289.97;;;10.26;50.31
55466;BME280;41329;41.594;23.810;2023-11-18T08:26:42;94302.22;;;10.25;49.65
55466;BME280;41329;41.594;23.810;2023-11-18T08:29:08;94303.00;;;10.22;50.78
55466;BME280;41329;41.594;23.810;2023-11-18T08:31:34;94290.34;;;10.17;49.29
55466;BME280;41329;41.594;23.810;2023-11-18T08:34:00;94291.13;;;10.07;50.22
55466;BME280;41329;41.594;23.810;2023-11-18T08:36:25;94291.53;;;10.27;50.41
55466;BME280;41329;41.594;23.810;2023-11-18T08:38:57;94282.84;;;10.21;49.41
55466;BME280;41329;41.594;23.810;2023-11-18T08:41:23;94265.06;;;10.08;49.02
55466;BME280;41329;41.594;23.810;2023-11-18T08:43:48;94279.31;;;10.21;47.80
55466;BME280;41329;41.594;23.810;2023-11-18T08:46:15;94258.75;;;10.32;49.43
55466;BME280;41329;41.594;23.810;2023-11-18T08:48:40;94277.31;;;10.46;47.46
55466;BME280;41329;41.594;23.810;2023-11-18T08:51:07;94273.34;;;10.61;47.58
55466;BME280;41329;41.594;23.810;2023-11-18T08:53:34;94253.97;;;10.61;48.06
55466;BME280;41329;41.594;23.810;2023-11-18T08:56:08;94263.44;;;10.77;46.57
55466;BME280;41329;41.594;23.810;2023-11-18T08:58:45;94272.13;;;10.83;45.92
55466;BME280;41329;41.594;23.810;2023-11-18T09:01:10;94262.63;;;10.87;46.00
55466;BME280;41329;41.594;23.810;2023-11-18T09:03:41;94244.03;;;10.84;46.38
55466;BME280;41329;41.594;23.810;2023-11-18T09:06:14;94238.13;;;10.79;46.36
55466;BME280;41329;41.594;23.810;2023-11-18T09:08:53;94245.97;;;11.01;45.51
55466;BME280;41329;41.594;23.810;2023-11-18T09:11:20;94236.53;;;10.85;45.08
55466;BME280;41329;41.594;23.810;2023-11-18T09:13:48;94246.00;;;10.94;45.67
55466;BME280;41329;41.594;23.810;2023-11-18T09:16:15;94242.81;;;10.99;45.93
55466;BME280;41329;41.594;23.810;2023-11-18T09:18:43;94243.16;;;11.12;45.12
55466;BME280;41329;41.594;23.810;2023-11-18T09:21:12;94243.53;;;11.21;44.85
55466;BME280;41329;41.594;23.810;2023-11-18T09:23:45;94230.84;;;11.27;45.12
55466;BME280;41329;41.594;23.810;2023-11-18T09:26:13;94235.13;;;11.42;44.13
55466;BME280;41329;41.594;23.810;2023-11-18T09:28:39;94237.09;;;11.45;44.25
55466;BME280;41329;41.594;23.810;2023-11-18T09:31:06;94233.09;;;11.53;44.05
55466;BME280;41329;41.594;23.810;2023-11-18T09:33:32;94233.88;;;11.57;43.73
55466;BME280;41329;41.594;23.810;2023-11-18T09:36:02;94230.69;;;11.62;42.96
55466;BME280;41329;41.594;23.810;2023-11-18T09:38:29;94221.94;;;11.67;43.72
55466;BME280;41329;41.594;23.810;2023-11-18T09:40:56;94223.44;;;11.82;44.67
55466;BME280;41329;41.594;23.810;2023-11-18T09:43:24;94228.03;;;12.02;43.19
55466;BME280;41329;41.594;23.810;2023-11-18T09:45:54;94206.59;;;12.13;43.98
55466;BME280;41329;41.594;23.810;2023-11-18T09:48:20;94210.13;;;12.17;41.41
55466;BME280;41329;41.594;23.810;2023-11-18T09:50:51;94219.19;;;12.21;41.92
55466;BME280;41329;41.594;23.810;2023-11-18T09:53:17;94169.88;;;11.99;41.12
55466;BME280;41329;41.594;23.810;2023-11-18T09:56:07;94204.03;;;12.33;41.83
55466;BME280;41329;41.594;23.810;2023-11-18T09:58:44;94211.59;;;12.29;42.47
55466;BME280;41329;41.594;23.810;2023-11-18T10:01:15;94192.03;;;12.43;42.11
55466;BME280;41329;41.594;23.810;2023-11-18T10:03:44;94224.44;;;12.57;41.94
55466;BME280;41329;41.594;23.810;2023-11-18T10:06:12;94214.09;;;12.61;40.61
55466;BME280;41329;41.594;23.810;2023-11-18T10:08:40;94220.53;;;12.51;40.34
55466;BME280;41329;41.594;23.810;2023-11-18T10:11:06;94205.69;;;12.23;38.78
55466;BME280;41329;41.594;23.810;2023-11-18T10:13:35;94221.00;;;12.42;40.12
55466;BME280;41329;41.594;23.810;2023-11-18T10:16:07;94214.72;;;12.34;40.75
55466;BME280;41329;41.594;23.810;2023-11-18T10:18:32;94223.72;;;12.49;40.43
55466;BME280;41329;41.594;23.810;2023-11-18T10:21:02;94188.56;;;12.35;39.53
55466;BME280;41329;41.594;23.810;2023-11-18T10:23:33;94190.47;;;12.42;39.22
55466;BME280;41329;41.594;23.810;2023-11-18T10:26:00;94194.41;;;12.44;39.58
55466;BME280;41329;41.594;23.810;2023-11-18T10:28:35;94222.00;;;12.62;40.14
55466;BME280;41329;41.594;23.810;2023-11-18T10:31:07;94206.44;;;12.72;39.06
55466;BME280;41329;41.594;23.810;2023-11-18T10:36:03;94207.41;;;12.55;38.55
55466;BME280;41329;41.594;23.810;2023-11-18T10:38:42;94176.97;;;12.48;38.65
55466;BME280;41329;41.594;23.810;2023-11-18T10:41:15;94193.09;;;12.60;38.52
55466;BME280;41329;41.594;23.810;2023-11-18T10:43:45;94208.44;;;12.71;39.03
55466;BME280;41329;41.594;23.810;2023-11-18T10:46:12;94192.81;;;12.84;38.32
55466;BME280;41329;41.594;23.810;2023-11-18T10:48:48;94195.75;;;12.70;36.80
55466;BME280;41329;41.594;23.810;2023-11-18T10:51:20;94158.41;;;12.41;36.84
55466;BME280;41329;41.594;23.810;2023-11-18T10:53:50;94182.53;;;12.44;36.48
55466;BME280;41329;41.594;23.810;2023-11-18T10:56:25;94167.38;;;12.15;36.43
55466;BME280;41329;41.594;23.810;2023-11-18T10:59:06;94159.81;;;12.19;36.84
55466;BME280;41329;41.594;23.810;2023-11-18T11:01:38;94168.53;;;12.17;37.09
55466;BME280;41329;41.594;23.810;2023-11-18T11:04:15;94167.06;;;12.02;37.48
55466;BME280;41329;41.594;23.810;2023-11-18T11:06:50;94152.44;;;12.02;36.56
55466;BME280;41329;41.594;23.810;2023-11-18T11:09:22;94167.28;;;12.25;37.86
55466;BME280;41329;41.594;23.810;2023-11-18T11:11:58;94159.31;;;12.27;36.57
55466;BME280;41329;41.594;23.810;2023-11-18T11:14:32;94173.19;;;12.27;35.92
55466;BME280;41329;41.594;23.810;2023-11-18T11:17:06;94172.81;;;12.22;37.32
55466;BME280;41329;41.594;23.810;2023-11-18T11:20:06;94179.38;;;11.98;36.56
55466;BME280;41329;41.594;23.810;2023-11-18T11:23:25;94174.25;;;11.96;37.10
55466;BME280;41329;41.594;23.810;2023-11-18T11:34:05;94169.06;;;12.02;37.49
55466;BME280;41329;41.594;23.810;2023-11-18T11:36:46;94171.72;;;12.16;37.85
55466;BME280;41329;41.594;23.810;2023-11-18T11:39:14;94189.22;;;12.50;38.67
55466;BME280;41329;41.594;23.810;2023-11-18T11:41:50;94123.66;;;12.29;36.99
55466;BME280;41329;41.594;23.810;2023-11-18T11:44:19;94166.97;;;12.53;34.99
55466;BME280;41329;41.594;23.810;2023-11-18T11:46:46;94189.25;;;12.47;37.86
55466;BME280;41329;41.594;23.810;2023-11-18T11:49:19;94169.75;;;12.53;37.40
55466;BME280;41329;41.594;23.810;2023-11-18T11:52:13;94205.94;;;12.80;37.63
55466;BME280;41329;41.594;23.810;2023-11-18T11:55:05;94178.28;;;12.73;35.10
55466;BME280;41329;41.594;23.810;2023-11-18T11:57:38;94188.19;;;12.33;34.85
55466;BME280;41329;41.594;23.810;2023-11-18T12:00:04;94178.47;;;12.11;36.62
55466;BME280;41329;41.594;23.810;2023-11-18T12:02:47;94196.72;;;12.09;37.04
55466;BME280;41329;41.594;23.810;2023-11-18T12:05:16;94179.41;;;11.94;36.63
55466;BME280;41329;41.594;23.810;2023-11-18T12:07:44;94206.19;;;12.11;36.88
55466;BME280;41329;41.594;23.810;2023-11-18T12:10:12;94198.72;;;12.05;37.02
55466;BME280;41329;41.594;23.810;2023-11-18T12:12:45;94207.47;;;12.00;36.35
55466;BME280;41329;41.594;23.810;2023-11-18T12:15:11;94207.75;;;12.16;37.46
55466;BME280;41329;41.594;23.810;2023-11-18T12:20:42;94214.97;;;12.51;35.95
55466;BME280;41329;41.594;23.810;2023-11-18T12:23:19;94198.03;;;12.38;35.28
55466;BME280;41329;41.594;23.810;2023-11-18T12:25:48;94207.22;;;12.35;36.89
55466;BME280;41329;41.594;23.810;2023-11-18T12:28:28;94226.06;;;12.51;36.62
55466;BME280;41329;41.594;23.810;2023-11-18T12:30:57;94231.13;;;12.59;36.04
55466;BME280;41329;41.594;23.810;2023-11-18T12:33:27;94236.00;;;12.48;35.29
55466;BME280;41329;41.594;23.810;2023-11-18T12:41:40;94261.72;;;12.01;35.63
55466;BME280;41329;41.594;23.810;2023-11-18T12:46:59;94277.41;;;11.60;36.84
55466;BME280;41329;41.594;23.810;2023-11-18T12:49:42;94288.38;;;11.81;36.61
55466;BME280;41329;41.594;23.810;2023-11-18T12:52:09;94296.25;;;11.93;36.47
55466;BME280;41329;41.594;23.810;2023-11-18T12:54:36;94288.44;;;11.67;36.33
55466;BME280;41329;41.594;23.810;2023-11-18T12:57:09;94290.75;;;11.82;36.46
55466;BME280;41329;41.594;23.810;2023-11-18T12:59:36;94311.06;;;12.23;39.11
55466;BME280;41329;41.594;23.810;2023-11-18T13:02:07;94314.06;;;12.50;36.02
55466;BME280;41329;41.594;23.810;2023-11-18T13:04:33;94330.59;;;12.64;35.47
55466;BME280;41329;41.594;23.810;2023-11-18T13:07:05;94330.28;;;12.52;34.60
55466;BME280;41329;41.594;23.810;2023-11-18T13:09:34;94329.50;;;12.51;34.21
55466;BME280;41329;41.594;23.810;2023-11-18T13:12:02;94331.22;;;12.34;33.89
55466;BME280;41329;41.594;23.810;2023-11-18T13:14:31;94334.06;;;12.24;34.75
55466;BME280;41329;41.594;23.810;2023-11-18T13:17:02;94341.94;;;12.29;36.05
55466;BME280;41329;41.594;23.810;2023-11-18T13:19:31;94323.53;;;12.56;34.80
55466;BME280;41329;41.594;23.810;2023-11-18T13:22:04;94309.53;;;12.70;34.84
55466;BME280;41329;41.594;23.810;2023-11-18T13:24:32;94345.00;;;12.96;35.30
55466;BME280;41329;41.594;23.810;2023-11-18T13:27:00;94328.09;;;13.21;33.76